sensor_id;sensor_type;location;lat;lon;timestamp;pressure;altitude;pressure_sealevel;temperature;humidity
60170;BME280;46042;49.444;6.862;2022-12-18T00:02:12;99703.69;;;-9.49;100.00
60170;BME280;46042;49.444;6.862;2022-12-18T00:04:38;99700.25;;;-9.49;100.00
60170;BME280;46042;49.444;6.862;2022-12-18T00:07:05;99695.97;;;-9.50;100.00
60170;BME280;46042;49.444;6.862;2022-12-18T00:09:32;99695.78;;;-9.57;100.00
60170;BME280;46042;49.444;6.862;2022-12-18T00:12:06;99694.06;;;-9.56;100.00
60170;BME280;46042;49.444;6.862;2022-12-18T00:14:44;99689.78;;;-9.57;100.00
60170;BME280;46042;49.444;6.862;2022-12-18T00:17:10;99691.69;;;-9.51;100.00
60170;BME280;46042;49.444;6.862;2022-12-18T00:19:37;99691.25;;;-9.38;100.00
60170;BME280;46042;49.444;6.862;2022-12-18T00:22:03;99697.28;;;-9.34;100.00
60170;BME280;46042;49.444;6.862;2022-12-18T00:24:31;99692.97;;;-9.37;100.00
60170;BME280;46042;49.444;6.862;2022-12-18T00:26:58;99699.59;;;-9.42;100.00
60170;BME280;46042;49.444;6.862;2022-12-18T00:29:24;99707.13;;;-9.47;100.00
60170;BME280;46042;49.444;6.862;2022-12-18T00:31:51;99701.97;;;-9.48;100.00
60170;BME280;46042;49.444;6.862;2022-12-18T00:34:17;99707.97;;;-9.46;100.00
60170;BME280;46042;49.444;6.862;2022-12-18T00:36:47;99706.22;;;-9.49;100.00
60170;BME280;46042;49.444;6.862;2022-12-18T00:39:14;99705.41;;;-9.48;100.00
60170;BME280;46042;49.444;6.862;2022-12-18T00:41:41;99706.41;;;-9.43;100.00
60170;BME280;46042;49.444;6.862;2022-12-18T00:44:26;99699.72;;;-9.39;100.00
60170;BME280;46042;49.444;6.862;2022-12-18T00:46:53;99703.19;;;-9.37;100.00
60170;BME280;46042;49.444;6.862;2022-12-18T00:49:20;99701.50;;;-9.36;100.00
60170;BME280;46042;49.444;6.862;2022-12-18T00:51:46;99693.91;;;-9.33;100.00
60170;BME280;46042;49.444;6.862;2022-12-18T00:54:13;99691.59;;;-9.27;100.00
60170;BME280;46042;49.444;6.862;2022-12-18T00:56:40;99692.44;;;-9.26;100.00
60170;BME280;46042;49.444;6.862;2022-12-18T00:59:16;99692.50;;;-9.25;100.00
60170;BME280;46042;49.444;6.862;2022-12-18T01:01:43;99689.03;;;-9.27;100.00
60170;BME280;46042;49.444;6.862;2022-12-18T01:04:10;99700.97;;;-9.26;100.00
60170;BME280;46042;49.444;6.862;2022-12-18T01:06:36;99696.69;;;-9.27;100.00
60170;BME280;46042;49.444;6.862;2022-12-18T01:09:04;99700.00;;;-9.30;100.00
60170;BME280;46042;49.444;6.862;2022-12-18T01:11:30;99708.19;;;-9.40;100.00
60170;BME280;46042;49.444;6.862;2022-12-18T01:13:57;99709.03;;;-9.41;100.00
60170;BME280;46042;49.444;6.862;2022-12-18T01:16:24;99706.47;;;-9.41;100.00
60170;BME280;46042;49.444;6.862;2022-12-18T01:18:52;99708.88;;;-9.46;100.00
60170;BME280;46042;49.444;6.862;2022-12-18T01:21:19;99707.06;;;-9.48;100.00
60170;BME280;46042;49.444;6.862;2022-12-18T01:23:46;99701.94;;;-9.50;100.00
60170;BME280;46042;49.444;6.862;2022-12-18T01:26:16;99706.97;;;-9.51;100.00
60170;BME280;46042;49.444;6.862;2022-12-18T01:28:44;99718.81;;;-9.53;100.00
60170;BME280;46042;49.444;6.862;2022-12-18T01:31:26;99713.75;;;-9.52;100.00
60170;BME280;46042;49.444;6.862;2022-12-18T01:33:53;99716.44;;;-9.49;100.00
60170;BME280;46042;49.444;6.862;2022-12-18T01:36:26;99708.97;;;-9.43;100.00
60170;BME280;46042;49.444;6.862;2022-12-18T01:38:53;99696.28;;;-9.39;100.00
60170;BME280;46042;49.444;6.862;2022-12-18T01:41:26;99693.00;;;-9.35;100.00
60170;BME280;46042;49.444;6.862;2022-12-18T01:43:55;99702.47;;;-9.33;100.00
60170;BME280;46042;49.444;6.862;2022-12-18T01:46:24;99708.38;;;-9.34;100.00
60170;BME280;46042;49.444;6.862;2022-12-18T01:49:01;99715.31;;;-9.30;100.00
60170;BME280;46042;49.444;6.862;2022-12-18T01:51:29;99719.44;;;-9.33;100.00
60170;BME280;46042;49.444;6.862;2022-12-18T01:53:57;99717.78;;;-9.33;100.00
60170;BME280;46042;49.444;6.862;2022-12-18T01:56:25;99711.78;;;-9.33;100.00
60170;BME280;46042;49.444;6.862;2022-12-18T01:59:11;99711.69;;;-9.36;100.00
60170;BME280;46042;49.444;6.862;2022-12-18T02:01:37;99714.13;;;-9.41;100.00
60170;BME280;46042;49.444;6.862;2022-12-18T02:04:25;99708.16;;;-9.41;100.00
60170;BME280;46042;49.444;6.862;2022-12-18T02:12:25;99706.34;;;-9.44;100.00
60170;BME280;46042;49.444;6.862;2022-12-18T02:15:07;99706.25;;;-9.47;100.00
60170;BME280;46042;49.444;6.862;2022-12-18T02:17:40;99710.34;;;-9.52;100.00
60170;BME280;46042;49.444;6.862;2022-12-18T02:20:13;99712.84;;;-9.54;100.00
60170;BME280;46042;49.444;6.862;2022-12-18T02:27:59;99718.81;;;-9.53;100.00
60170;BME280;46042;49.444;6.862;2022-12-18T02:30:30;99695.88;;;-9.53;100.00
60170;BME280;46042;49.444;6.862;2022-12-18T02:33:01;99698.31;;;-9.57;100.00
60170;BME280;46042;49.444;6.862;2022-12-18T02:35:32;99695.88;;;-9.53;100.00
60170;BME280;46042;49.444;6.862;2022-12-18T02:38:01;99688.25;;;-9.52;100.00
60170;BME280;46042;49.444;6.862;2022-12-18T02:40:30;99690.94;;;-9.47;100.00
60170;BME280;46042;49.444;6.862;2022-12-18T02:43:12;99698.03;;;-9.38;100.00
60170;BME280;46042;49.444;6.862;2022-12-18T02:45:52;99698.81;;;-9.41;100.00
60170;BME280;46042;49.444;6.862;2022-12-18T02:48:26;99701.47;;;-9.38;100.00
60170;BME280;46042;49.444;6.862;2022-12-18T02:51:18;99698.09;;;-9.37;100.00
60170;BME280;46042;49.444;6.862;2022-12-18T02:53:53;99692.84;;;-9.41;100.00
60170;BME280;46042;49.444;6.862;2022-12-18T02:56:49;99699.50;;;-9.45;100.00
60170;BME280;46042;49.444;6.862;2022-12-18T02:59:22;99696.97;;;-9.45;100.00
60170;BME280;46042;49.444;6.862;2022-12-18T03:04:59;99692.66;;;-9.48;100.00
60170;BME280;46042;49.444;6.862;2022-12-18T03:07:36;99698.59;;;-9.47;100.00
60170;BME280;46042;49.444;6.862;2022-12-18T03:10:06;99706.34;;;-9.44;100.00
60170;BME280;46042;49.444;6.862;2022-12-18T03:12:39;99706.41;;;-9.43;100.00
60170;BME280;46042;49.444;6.862;2022-12-18T03:17:34;99709.47;;;-9.53;100.00
60170;BME280;46042;49.444;6.862;2022-12-18T03:20:12;99708.56;;;-9.55;100.00
60170;BME280;46042;49.444;6.862;2022-12-18T03:22:40;99716.19;;;-9.57;100.00
60170;BME280;46042;49.444;6.862;2022-12-18T03:25:11;99711.09;;;-9.55;100.00
60170;BME280;46042;49.444;6.862;2022-12-18T03:27:44;99711.16;;;-9.53;100.00
60170;BME280;46042;49.444;6.862;2022-12-18T03:30:13;99705.25;;;-9.52;100.00
60170;BME280;46042;49.444;6.862;2022-12-18T03:32:52;99707.75;;;-9.54;100.00
60170;BME280;46042;49.444;6.862;2022-12-18T03:35:29;99710.25;;;-9.55;100.00
60170;BME280;46042;49.444;6.862;2022-12-18T03:37:58;99703.44;;;-9.55;100.00
60170;BME280;46042;49.444;6.862;2022-12-18T03:40:31;99706.88;;;-9.54;100.00
60170;BME280;46042;49.444;6.862;2022-12-18T03:43:19;99710.53;;;-9.46;100.00
60170;BME280;46042;49.444;6.862;2022-12-18T03:45:52;99707.13;;;-9.47;100.00
60170;BME280;46042;49.444;6.862;2022-12-18T03:48:25;99707.06;;;-9.48;100.00
60170;BME280;46042;49.444;6.862;2022-12-18T03:51:00;99706.25;;;-9.47;100.00
60170;BME280;46042;49.444;6.862;2022-12-18T03:56:01;99700.34;;;-9.46;100.00
60170;BME280;46042;49.444;6.862;2022-12-18T03:58:32;99700.44;;;-9.43;100.00
60170;BME280;46042;49.444;6.862;2022-12-18T04:01:02;99708.16;;;-9.41;100.00
60170;BME280;46042;49.444;6.862;2022-12-18T04:03:31;99704.00;;;-9.38;100.00
60170;BME280;46042;49.444;6.862;2022-12-18T04:05:59;99708.38;;;-9.34;100.00
60170;BME280;46042;49.444;6.862;2022-12-18T04:08:27;99710.22;;;-9.30;100.00
60170;BME280;46042;49.444;6.862;2022-12-18T04:10:54;99700.63;;;-9.37;100.00
60170;BME280;46042;49.444;6.862;2022-12-18T04:13:23;99709.13;;;-9.38;100.00
60170;BME280;46042;49.444;6.862;2022-12-18T04:15:49;99698.00;;;-9.40;100.00
60170;BME280;46042;49.444;6.862;2022-12-18T04:18:16;99693.47;;;-9.49;100.00
60170;BME280;46042;49.444;6.862;2022-12-18T04:20:43;99696.59;;;-9.58;100.00
60170;BME280;46042;49.444;6.862;2022-12-18T04:23:09;99693.91;;;-9.61;100.00
60170;BME280;46042;49.444;6.862;2022-12-18T04:25:36;99692.19;;;-9.62;100.00
60170;BME280;46042;49.444;6.862;2022-12-18T04:28:03;99686.16;;;-9.64;100.00
60170;BME280;46042;49.444;6.862;2022-12-18T04:30:29;99684.28;;;-9.69;100.00
60170;BME280;46042;49.444;6.862;2022-12-18T04:32:56;99692.72;;;-9.72;100.00
60170;BME280;46042;49.444;6.862;2022-12-18T04:35:22;99690.16;;;-9.72;100.00
60170;BME280;46042;49.444;6.862;2022-12-18T04:37:49;99692.72;;;-9.72;100.00
60170;BME280;46042;49.444;6.862;2022-12-18T04:40:17;99691.66;;;-9.79;100.00
60170;BME280;46042;49.444;6.862;2022-12-18T04:42:43;99687.47;;;-9.77;100.00
60170;BME280;46042;49.444;6.862;2022-12-18T04:45:10;99691.66;;;-9.79;100.00
60170;BME280;46042;49.444;6.862;2022-12-18T04:47:37;99695.84;;;-9.81;100.00
60170;BME280;46042;49.444;6.862;2022-12-18T04:50:04;99712.91;;;-9.78;100.00
60170;BME280;46042;49.444;6.862;2022-12-18T04:52:31;99705.13;;;-9.83;100.00
60170;BME280;46042;49.444;6.862;2022-12-18T04:54:57;99700.69;;;-9.89;100.00
60170;BME280;46042;49.444;6.862;2022-12-18T04:57:24;99698.88;;;-9.91;100.00
60170;BME280;46042;49.444;6.862;2022-12-18T04:59:50;99710.50;;;-10.00;100.00
60170;BME280;46042;49.444;6.862;2022-12-18T05:02:17;99717.28;;;-10.00;100.00
60170;BME280;46042;49.444;6.862;2022-12-18T05:04:44;99715.53;;;-10.01;100.00
60170;BME280;46042;49.444;6.862;2022-12-18T05:07:10;99724.81;;;-10.03;100.00
60170;BME280;46042;49.444;6.862;2022-12-18T05:09:37;99723.09;;;-10.04;100.00
60170;BME280;46042;49.444;6.862;2022-12-18T05:12:04;99728.13;;;-10.06;100.00
60170;BME280;46042;49.444;6.862;2022-12-18T05:14:30;99727.28;;;-10.06;100.00
60170;BME280;46042;49.444;6.862;2022-12-18T05:16:57;99733.31;;;-10.03;100.00
60170;BME280;46042;49.444;6.862;2022-12-18T05:19:26;99744.47;;;-10.01;100.00
60170;BME280;46042;49.444;6.862;2022-12-18T05:21:53;99746.94;;;-10.02;100.00
60170;BME280;46042;49.444;6.862;2022-12-18T05:24:19;99749.66;;;-9.97;100.00
60170;BME280;46042;49.444;6.862;2022-12-18T05:26:46;99752.13;;;-10.01;100.00
60170;BME280;46042;49.444;6.862;2022-12-18T05:29:13;99757.31;;;-9.97;100.00
60170;BME280;46042;49.444;6.862;2022-12-18T05:31:40;99758.41;;;-9.91;100.00
60170;BME280;46042;49.444;6.862;2022-12-18T05:34:08;99756.75;;;-9.89;100.00
60170;BME280;46042;49.444;6.862;2022-12-18T05:36:36;99755.72;;;-9.94;100.00
60170;BME280;46042;49.444;6.862;2022-12-18T05:39:03;99755.63;;;-9.97;100.00
60170;BME280;46042;49.444;6.862;2022-12-18T05:41:29;99755.44;;;-10.02;100.00
60170;BME280;46042;49.444;6.862;2022-12-18T05:43:56;99759.59;;;-10.05;100.00
60170;BME280;46042;49.444;6.862;2022-12-18T05:46:23;99767.00;;;-10.11;100.00
60170;BME280;46042;49.444;6.862;2022-12-18T05:48:50;99768.63;;;-10.14;100.00
60170;BME280;46042;49.444;6.862;2022-12-18T05:51:20;99777.09;;;-10.15;100.00
60170;BME280;46042;49.444;6.862;2022-12-18T05:53:47;99772.88;;;-10.14;100.00
60170;BME280;46042;49.444;6.862;2022-12-18T05:56:17;99773.72;;;-10.14;100.00
60170;BME280;46042;49.444;6.862;2022-12-18T05:58:44;99765.00;;;-10.20;100.00
60170;BME280;46042;49.444;6.862;2022-12-18T06:01:15;99773.44;;;-10.21;100.00
60170;BME280;46042;49.444;6.862;2022-12-18T06:03:43;99769.94;;;-10.25;100.00
60170;BME280;46042;49.444;6.862;2022-12-18T06:06:24;99770.69;;;-10.27;100.00
60170;BME280;46042;49.444;6.862;2022-12-18T06:08:52;99765.66;;;-10.26;100.00
60170;BME280;46042;49.444;6.862;2022-12-18T06:11:24;99765.69;;;-10.24;100.00
60170;BME280;46042;49.444;6.862;2022-12-18T06:13:53;99767.34;;;-10.26;100.00
60170;BME280;46042;49.444;6.862;2022-12-18T06:16:24;99761.41;;;-10.25;100.00
60170;BME280;46042;49.444;6.862;2022-12-18T06:18:51;99756.44;;;-10.22;100.00
60170;BME280;46042;49.444;6.862;2022-12-18T06:21:17;99769.13;;;-10.24;100.00
60170;BME280;46042;49.444;6.862;2022-12-18T06:23:44;99766.50;;;-10.25;100.00
60170;BME280;46042;49.444;6.862;2022-12-18T06:26:12;99775.03;;;-10.25;100.00
60170;BME280;46042;49.444;6.862;2022-12-18T06:28:39;99768.06;;;-10.29;100.00
60170;BME280;46042;49.444;6.862;2022-12-18T06:31:06;99760.44;;;-10.29;100.00
60170;BME280;46042;49.444;6.862;2022-12-18T06:33:34;99768.25;;;-10.24;100.00
60170;BME280;46042;49.444;6.862;2022-12-18T06:36:05;99770.88;;;-10.23;100.00
60170;BME280;46042;49.444;6.862;2022-12-18T06:38:34;99768.31;;;-10.23;100.00
60170;BME280;46042;49.444;6.862;2022-12-18T06:41:08;99762.13;;;-10.30;100.00
60170;BME280;46042;49.444;6.862;2022-12-18T06:43:35;99766.97;;;-10.36;100.00
60170;BME280;46042;49.444;6.862;2022-12-18T06:46:04;99765.38;;;-10.34;100.00
60170;BME280;46042;49.444;6.862;2022-12-18T06:48:31;99769.78;;;-10.30;100.00
60170;BME280;46042;49.444;6.862;2022-12-18T06:50:58;99773.69;;;-10.15;100.00
60170;BME280;46042;49.444;6.862;2022-12-18T06:53:25;99777.47;;;-10.04;100.00
60170;BME280;46042;49.444;6.862;2022-12-18T06:55:52;99778.25;;;-10.06;100.00
60170;BME280;46042;49.444;6.862;2022-12-18T06:58:18;99782.56;;;-10.04;100.00
60170;BME280;46042;49.444;6.862;2022-12-18T07:00:45;99779.19;;;-10.03;100.00
60170;BME280;46042;49.444;6.862;2022-12-18T07:03:12;99780.16;;;-10.01;100.00
60170;BME280;46042;49.444;6.862;2022-12-18T07:05:41;99795.31;;;-10.04;100.00
60170;BME280;46042;49.444;6.862;2022-12-18T07:08:08;99795.38;;;-10.02;100.00
60170;BME280;46042;49.444;6.862;2022-12-18T07:10:42;99789.38;;;-10.04;100.00
60170;BME280;46042;49.444;6.862;2022-12-18T07:13:15;99798.47;;;-10.11;100.00
60170;BME280;46042;49.444;6.862;2022-12-18T07:15:42;99799.00;;;-10.20;100.00
60170;BME280;46042;49.444;6.862;2022-12-18T07:18:09;99806.03;;;-10.12;100.00
60170;BME280;46042;49.444;6.862;2022-12-18T07:20:36;99814.41;;;-10.17;100.00
60170;BME280;46042;49.444;6.862;2022-12-18T07:23:03;99814.84;;;-10.27;100.00
60170;BME280;46042;49.444;6.862;2022-12-18T07:25:35;99825.19;;;-10.24;100.00
60170;BME280;46042;49.444;6.862;2022-12-18T07:28:02;99830.44;;;-10.19;100.00
60170;BME280;46042;49.444;6.862;2022-12-18T07:30:29;99834.06;;;-10.12;100.00
60170;BME280;46042;49.444;6.862;2022-12-18T07:32:56;99837.78;;;-10.04;100.00
60170;BME280;46042;49.444;6.862;2022-12-18T07:35:22;99838.00;;;-9.98;100.00
60170;BME280;46042;49.444;6.862;2022-12-18T07:37:50;99845.94;;;-9.90;100.00
60170;BME280;46042;49.444;6.862;2022-12-18T07:40:17;99843.56;;;-9.86;100.00
60170;BME280;46042;49.444;6.862;2022-12-18T07:42:44;99846.94;;;-9.85;100.00
60170;BME280;46042;49.444;6.862;2022-12-18T07:45:10;99837.84;;;-9.78;100.00
60170;BME280;46042;49.444;6.862;2022-12-18T07:47:37;99834.63;;;-9.74;100.00
60170;BME280;46042;49.444;6.862;2022-12-18T07:50:04;99832.09;;;-9.73;100.00
60170;BME280;46042;49.444;6.862;2022-12-18T07:52:31;99815.97;;;-9.72;100.00
60170;BME280;46042;49.444;6.862;2022-12-18T07:54:58;99810.94;;;-9.70;100.00
60170;BME280;46042;49.444;6.862;2022-12-18T07:57:25;99805.94;;;-9.67;100.00
60170;BME280;46042;49.444;6.862;2022-12-18T08:00:12;99792.38;;;-9.66;100.00
60170;BME280;46042;49.444;6.862;2022-12-18T08:02:39;99788.34;;;-9.59;100.00
60170;BME280;46042;49.444;6.862;2022-12-18T08:05:07;99797.13;;;-9.51;100.00
60170;BME280;46042;49.444;6.862;2022-12-18T08:07:34;99798.97;;;-9.47;100.00
60170;BME280;46042;49.444;6.862;2022-12-18T08:10:01;99803.44;;;-9.41;100.00
60170;BME280;46042;49.444;6.862;2022-12-18T08:12:28;99802.59;;;-9.40;100.00
60170;BME280;46042;49.444;6.862;2022-12-18T08:14:54;99793.41;;;-9.35;100.00
60170;BME280;46042;49.444;6.862;2022-12-18T08:17:21;99797.78;;;-9.31;100.00
60170;BME280;46042;49.444;6.862;2022-12-18T08:19:47;99803.06;;;-9.26;100.00
60170;BME280;46042;49.444;6.862;2022-12-18T08:22:14;99810.06;;;-9.20;100.00
60170;BME280;46042;49.444;6.862;2022-12-18T08:24:41;99806.84;;;-9.15;100.00
60170;BME280;46042;49.444;6.862;2022-12-18T08:27:07;99802.75;;;-9.09;100.00
60170;BME280;46042;49.444;6.862;2022-12-18T08:29:54;99791.88;;;-9.02;100.00
60170;BME280;46042;49.444;6.862;2022-12-18T08:32:21;99796.38;;;-8.95;100.00
60170;BME280;46042;49.444;6.862;2022-12-18T08:34:48;99802.56;;;-8.88;100.00
60170;BME280;46042;49.444;6.862;2022-12-18T08:37:14;99805.22;;;-8.83;100.00
60170;BME280;46042;49.444;6.862;2022-12-18T08:39:41;99804.53;;;-8.79;100.00
60170;BME280;46042;49.444;6.862;2022-12-18T08:42:08;99806.28;;;-8.77;100.00
60170;BME280;46042;49.444;6.862;2022-12-18T08:44:53;99791.03;;;-8.75;100.00
60170;BME280;46042;49.444;6.862;2022-12-18T08:47:20;99798.69;;;-8.75;100.00
60170;BME280;46042;49.444;6.862;2022-12-18T08:49:46;99791.06;;;-8.74;100.00
60170;BME280;46042;49.444;6.862;2022-12-18T08:52:13;99795.41;;;-8.71;100.00
60170;BME280;46042;49.444;6.862;2022-12-18T08:54:40;99806.59;;;-8.67;100.00
60170;BME280;46042;49.444;6.862;2022-12-18T08:57:06;99810.13;;;-8.64;100.00
60170;BME280;46042;49.444;6.862;2022-12-18T08:59:33;99809.41;;;-8.58;100.00
60170;BME280;46042;49.444;6.862;2022-12-18T09:01:59;99815.63;;;-8.50;100.00
60170;BME280;46042;49.444;6.862;2022-12-18T09:04:26;99822.63;;;-8.43;100.00
60170;BME280;46042;49.444;6.862;2022-12-18T09:06:53;99817.75;;;-8.35;100.00
60170;BME280;46042;49.444;6.862;2022-12-18T09:09:19;99833.34;;;-8.25;100.00
60170;BME280;46042;49.444;6.862;2022-12-18T09:11:46;99833.59;;;-8.16;100.00
60170;BME280;46042;49.444;6.862;2022-12-18T09:14:13;99832.78;;;-8.15;100.00
60170;BME280;46042;49.444;6.862;2022-12-18T09:16:39;99836.44;;;-8.07;100.00
60170;BME280;46042;49.444;6.862;2022-12-18T09:19:06;99848.63;;;-7.98;100.00
60170;BME280;46042;49.444;6.862;2022-12-18T09:21:35;99850.59;;;-7.88;100.00
60170;BME280;46042;49.444;6.862;2022-12-18T09:24:03;99856.03;;;-7.77;100.00
60170;BME280;46042;49.444;6.862;2022-12-18T09:26:34;99855.16;;;-7.77;100.00
60170;BME280;46042;49.444;6.862;2022-12-18T09:29:02;99854.41;;;-7.75;100.00
60170;BME280;46042;49.444;6.862;2022-12-18T09:31:28;99852.88;;;-7.68;100.00
60170;BME280;46042;49.444;6.862;2022-12-18T09:33:55;99852.91;;;-7.66;100.00
60170;BME280;46042;49.444;6.862;2022-12-18T09:36:23;99844.19;;;-7.73;100.00
60170;BME280;46042;49.444;6.862;2022-12-18T09:38:50;99851.56;;;-7.84;100.00
60170;BME280;46042;49.444;6.862;2022-12-18T09:43:57;99843.47;;;-7.69;100.00
60170;BME280;46042;49.444;6.862;2022-12-18T09:46:40;99842.88;;;-7.59;100.00
60170;BME280;46042;49.444;6.862;2022-12-18T09:49:18;99823.56;;;-7.47;100.00
60170;BME280;46042;49.444;6.862;2022-12-18T09:51:47;99821.97;;;-7.42;100.00
60170;BME280;46042;49.444;6.862;2022-12-18T09:54:21;99818.66;;;-7.39;100.00
60170;BME280;46042;49.444;6.862;2022-12-18T09:56:49;99846.25;;;-7.28;100.00
60170;BME280;46042;49.444;6.862;2022-12-18T09:59:21;99837.06;;;-7.19;100.00
60170;BME280;46042;49.444;6.862;2022-12-18T10:01:50;99833.00;;;-7.11;100.00
60170;BME280;46042;49.444;6.862;2022-12-18T10:04:17;99839.47;;;-7.25;100.00
60170;BME280;46042;49.444;6.862;2022-12-18T10:06:52;99844.72;;;-7.19;100.00
60170;BME280;46042;49.444;6.862;2022-12-18T10:09:28;99845.47;;;-7.25;100.00
60170;BME280;46042;49.444;6.862;2022-12-18T10:20:22;99819.03;;;-6.87;100.00
60170;BME280;46042;49.444;6.862;2022-12-18T10:23:38;99802.09;;;-6.82;100.00
60170;BME280;46042;49.444;6.862;2022-12-18T10:26:13;99804.97;;;-6.68;100.00
60170;BME280;46042;49.444;6.862;2022-12-18T10:28:41;99797.47;;;-6.60;100.00
60170;BME280;46042;49.444;6.862;2022-12-18T10:31:18;99795.72;;;-6.61;100.00
60170;BME280;46042;49.444;6.862;2022-12-18T10:33:45;99789.53;;;-6.71;100.00
60170;BME280;46042;49.444;6.862;2022-12-18T10:36:12;99790.25;;;-6.77;99.47
60170;BME280;46042;49.444;6.862;2022-12-18T10:38:39;99799.53;;;-6.82;99.40
60170;BME280;46042;49.444;6.862;2022-12-18T10:41:23;99786.91;;;-6.74;99.97
60170;BME280;46042;49.444;6.862;2022-12-18T10:44:24;99778.28;;;-6.76;99.58
60170;BME280;46042;49.444;6.862;2022-12-18T10:47:03;99776.66;;;-6.74;99.33
60170;BME280;46042;49.444;6.862;2022-12-18T10:49:50;99775.00;;;-6.72;99.91
60170;BME280;46042;49.444;6.862;2022-12-18T10:52:24;99778.56;;;-6.65;100.00
60170;BME280;46042;49.444;6.862;2022-12-18T10:54:54;99773.44;;;-6.65;99.56
60170;BME280;46042;49.444;6.862;2022-12-18T10:57:32;99762.34;;;-6.64;100.00
60170;BME280;46042;49.444;6.862;2022-12-18T11:00:20;99772.56;;;-6.66;98.89
60170;BME280;46042;49.444;6.862;2022-12-18T11:02:47;99767.72;;;-6.53;99.96
60170;BME280;46042;49.444;6.862;2022-12-18T11:05:32;99772.22;;;-6.41;99.17
60170;BME280;46042;49.444;6.862;2022-12-18T11:08:01;99757.50;;;-6.50;98.38
60170;BME280;46042;49.444;6.862;2022-12-18T11:10:37;99745.84;;;-6.36;99.31
60170;BME280;46042;49.444;6.862;2022-12-18T11:13:30;99743.59;;;-6.20;98.61
60170;BME280;46042;49.444;6.862;2022-12-18T11:15:59;99750.50;;;-6.16;98.99
60170;BME280;46042;49.444;6.862;2022-12-18T11:18:28;99750.56;;;-6.13;98.18
60170;BME280;46042;49.444;6.862;2022-12-18T11:23:28;99735.44;;;-5.97;98.36
60170;BME280;46042;49.444;6.862;2022-12-18T11:25:57;99738.00;;;-5.99;97.67
60170;BME280;46042;49.444;6.862;2022-12-18T11:28:25;99731.16;;;-5.98;97.27
60170;BME280;46042;49.444;6.862;2022-12-18T11:33:40;99721.97;;;-5.86;96.86
60170;BME280;46042;49.444;6.862;2022-12-18T11:36:32;99720.41;;;-5.77;98.18
60170;BME280;46042;49.444;6.862;2022-12-18T11:39:51;99722.94;;;-5.80;96.82
60170;BME280;46042;49.444;6.862;2022-12-18T11:42:13;99727.41;;;-5.68;97.32
60170;BME280;46042;49.444;6.862;2022-12-18T11:45:00;99725.13;;;-5.51;98.56
60170;BME280;46042;49.444;6.862;2022-12-18T11:47:45;99723.44;;;-5.51;96.20
60170;BME280;46042;49.444;6.862;2022-12-18T11:50:19;99724.44;;;-5.39;96.67
60170;BME280;46042;49.444;6.862;2022-12-18T11:52:48;99720.16;;;-5.42;95.99
60170;BME280;46042;49.444;6.862;2022-12-18T11:55:54;99731.44;;;-5.32;95.43
60170;BME280;46042;49.444;6.862;2022-12-18T11:58:50;99726.34;;;-5.29;96.60
60170;BME280;46042;49.444;6.862;2022-12-18T12:16:14;99697.00;;;-4.87;96.05
60170;BME280;46042;49.444;6.862;2022-12-18T12:18:55;99680.31;;;-5.17;95.76
60170;BME280;46042;49.444;6.862;2022-12-18T12:26:55;99683.59;;;-5.25;96.52
60170;BME280;46042;49.444;6.862;2022-12-18T12:40:18;99676.50;;;-5.40;96.78
60170;BME280;46042;49.444;6.862;2022-12-18T12:43:26;99677.38;;;-5.40;96.19
60170;BME280;46042;49.444;6.862;2022-12-18T12:45:58;99681.63;;;-5.42;96.02
60170;BME280;46042;49.444;6.862;2022-12-18T12:51:02;99674.16;;;-5.26;96.85
60170;BME280;46042;49.444;6.862;2022-12-18T12:53:31;99662.13;;;-5.31;96.51
60170;BME280;46042;49.444;6.862;2022-12-18T12:56:05;99658.88;;;-5.19;96.93
60170;BME280;46042;49.444;6.862;2022-12-18T13:01:36;99666.00;;;-4.99;96.54
60170;BME280;46042;49.444;6.862;2022-12-18T13:05:07;99661.00;;;-4.88;96.87
60170;BME280;46042;49.444;6.862;2022-12-18T13:07:29;99649.72;;;-4.98;95.46
60170;BME280;46042;49.444;6.862;2022-12-18T13:13:11;99641.25;;;-4.92;95.24
60170;BME280;46042;49.444;6.862;2022-12-18T13:16:06;99637.66;;;-5.04;95.16
60170;BME280;46042;49.444;6.862;2022-12-18T13:18:34;99637.69;;;-5.01;95.21
60170;BME280;46042;49.444;6.862;2022-12-18T13:21:08;99632.63;;;-4.96;96.12
60170;BME280;46042;49.444;6.862;2022-12-18T13:23:39;99639.63;;;-4.84;96.61
60170;BME280;46042;49.444;6.862;2022-12-18T13:34:21;99639.84;;;-4.67;96.83
60170;BME280;46042;49.444;6.862;2022-12-18T13:36:57;99627.91;;;-4.59;96.85
60170;BME280;46042;49.444;6.862;2022-12-18T13:39:43;99629.66;;;-4.59;96.31
60170;BME280;46042;49.444;6.862;2022-12-18T13:44:57;99622.47;;;-4.87;95.66
60170;BME280;46042;49.444;6.862;2022-12-18T13:47:32;99623.31;;;-4.86;96.29
60170;BME280;46042;49.444;6.862;2022-12-18T13:50:00;99624.94;;;-4.94;96.70
60170;BME280;46042;49.444;6.862;2022-12-18T13:52:28;99628.41;;;-4.89;97.01
60170;BME280;46042;49.444;6.862;2022-12-18T13:55:01;99631.06;;;-4.83;97.38
60170;BME280;46042;49.444;6.862;2022-12-18T13:57:32;99621.66;;;-4.81;96.89
60170;BME280;46042;49.444;6.862;2022-12-18T14:02:49;99612.78;;;-5.06;97.36
60170;BME280;46042;49.444;6.862;2022-12-18T14:05:29;99623.00;;;-5.09;98.15
60170;BME280;46042;49.444;6.862;2022-12-18T14:08:05;99625.59;;;-5.09;97.70
60170;BME280;46042;49.444;6.862;2022-12-18T14:10:32;99624.63;;;-5.16;98.14
60170;BME280;46042;49.444;6.862;2022-12-18T14:13:26;99620.38;;;-5.14;99.00
60170;BME280;46042;49.444;6.862;2022-12-18T14:15:55;99617.72;;;-5.20;98.93
60170;BME280;46042;49.444;6.862;2022-12-18T14:21:30;99608.22;;;-5.28;99.50
60170;BME280;46042;49.444;6.862;2022-12-18T14:24:17;99616.78;;;-5.29;99.62
60170;BME280;46042;49.444;6.862;2022-12-18T14:26:45;99621.75;;;-5.38;99.59
60170;BME280;46042;49.444;6.862;2022-12-18T14:29:28;99622.56;;;-5.42;99.72
60170;BME280;46042;49.444;6.862;2022-12-18T14:34:37;99620.81;;;-5.45;100.00
60170;BME280;46042;49.444;6.862;2022-12-18T14:37:04;99618.28;;;-5.43;100.00
60170;BME280;46042;49.444;6.862;2022-12-18T14:39:31;99619.97;;;-5.44;100.00
60170;BME280;46042;49.444;6.862;2022-12-18T14:41:57;99629.41;;;-5.43;100.00
60170;BME280;46042;49.444;6.862;2022-12-18T14:44:24;99625.97;;;-5.43;100.00
60170;BME280;46042;49.444;6.862;2022-12-18T14:46:56;99633.66;;;-5.46;100.00